EGGPEGNT

Guest
Details From EGGP - Liverpool John Lennon
To EGNT - Newcastle
Flight Number -
Tags Routegen
Created
Modified
Stats Distance 110 nm / 204 km
Max Altitude 0 ft / 0 m
Waypoints 2
Social Downloads 5
Likes 0
Share VATSIM

Download

Looking for another format? Having issues loading an existing format? Contact us
Advertisement - Login to hide

Notes

None

Route

EGGP EGNT

ID Type Via Altitude Latitude Longitude Leg Dist Tot Dist Heading (true) Name
O EGGP APT - 0 ft / 0 m 53.33288˚ -2.86602˚ - 0 nm - -
O EGNT APT - 0 ft / 0 m 55.03353˚ -1.70634˚ 109 nm 109 nm 21° / 22° -

Altitude Profile

Advertisement - Login to hide

EGGP

Details ICAO EGGP (LPL)
Name Liverpool
Region United Kingdom
Timezone Europe/London (UTC+0.0)
Stats Elevation 80 ft / 24 m (AMSL)
Location 53.333632° -2.849769°
Runways 1
Magnetic Variation 1.674° W

METAR

EGGP 142020Z 29012KT 9000 -SHRA SCT023 BKN035 07/04 Q0986

Decode

TAF

TAF TAF EGGP 141700Z 1418/1518 22012KT 9999 SCT035 BECMG 1418/1421 28012KT TEMPO 1418/1504 30015G25KT 6000 SHRA BKN010 PROB30 TEMPO 1422/1504 2000 +SHRAGS BKN005 BKN010CB BECMG 1500/1503 34012KT PROB30 TEMPO 1509/1517 35015G25KT

Decode

Departure Runways

ID Width Length Bearing (true) Bearing (mag) Surface Threshold Offset Overrun Length
09 151 ft / 46 m 7,466 ft / 2,276 m 85.59° 87.26° Asphalt 180 ft / 55 m 0 ft / 0 m
27 151 ft / 46 m 7,466 ft / 2,276 m 265.61° 267.28° Asphalt 0 ft / 0 m 0 ft / 0 m

EGNT

Details ICAO EGNT (NCL)
Name Newcastle
Region United Kingdom
Timezone Europe/London (UTC+0.0)
Stats Elevation 266 ft / 81 m (AMSL)
Location 55.037922° -1.689833°
Runways 1
Magnetic Variation 1.478° W

METAR

EGNT 142020Z 28006KT 9999 SCT032 01/M00 Q0983

Decode

TAF

TAF EGNT 141702Z 1418/1518 29008KT 9999 SCT025 TEMPO 1418/1515 7000 SHRA BKN009 PROB40 TEMPO 1422/1506 30015G25KT 4000 -SHRASN SHRAGS

Decode

Destination Runways

ID Width Length Bearing (true) Bearing (mag) Surface Threshold Offset Overrun Length
07 151 ft / 46 m 7,621 ft / 2,323 m 65.13° 66.61° Asphalt 394 ft / 120 m 108 ft / 33 m
25 151 ft / 46 m 7,621 ft / 2,323 m 245.16° 246.64° Asphalt 446 ft / 136 m 56 ft / 17 m

Approach Navaids

Runway Type Ident Frequency Range Bearing (true) Bearing (mag) Slope Elevation
07 Localiser INC 111.50 MHz 18 nm / 33 km 65.18° 66.66° - 297 ft / 91 m (AMSL)
07 Glidescope INC 111.50 MHz 10 nm / 19 km 65.15° 66.63° 3.00° 297 ft / 91 m (AMSL)
07 DME INC 111.50 MHz 18 nm / 33 km - - - 256 ft / 78 m (AMSL)
25 Localiser INWC 111.50 MHz 18 nm / 33 km 245.12° 246.59° - 279 ft / 85 m (AMSL)
25 Glidescope INWC 111.50 MHz 10 nm / 19 km 245.15° 246.63° 3.00° 297 ft / 91 m (AMSL)
25 DME INWC 111.50 MHz 18 nm / 33 km - - - 256 ft / 78 m (AMSL)

Popular Alternatives